SBOSBO LPL / EGGP
Speedbird OnlineSpeedbird Online LPL / EGGP

Liverpool John Lennon Airport
23:44 4.1°C

Location Liverpool, United Kingdom
Latitude: 53.33359909057617
Longitude: -2.849720001220703
Local Time 23:44 on 27 Feb 2024
UTC 0 hours (Europe/London)
METAR EGGP 272320Z 27005KT CAVOK 04/03 Q1018
TAF TAF EGGP 272256Z 2800/2824 29010KT 9999 SCT025 BECMG 2800/2803 16010KT TEMPO 2810/2824 7000 RA BKN012 PROB30 TEMPO 2810/2824 4000 +RA PROB30 TEMPO 2814/2824 18015G25KT
Weather As Of 27 Feb 2024 23:44
Description Clear sky
Wind 9 km/h from West (270°)
Cloud Cover 0%
Precipitation Rain: none, Snow: none
Sunrise 07:05
Sunset 17:43
Web Airport Website | Wikipedia
Codes IATA: LPL
ICAO: EGGP
Altitude 24 Meter / 80 Feet
Distance 286 KM / 178 Miles
from London.
Runways
RunwayLength (m)Surface
092285Asphalt
272285Asphalt
Radio
TypeDescriptionFrequency
APPAPP119.85
ATISATIS124.325
GNDGND121.95
TWRTWR126.35
Live ATC



Support Speedbird Online

© 2017-2024 Speedbird Online